createdAt,value
2019-04-22T00:01:41.845Z,94.90
2019-04-22T00:04:30.194Z,94.80
2019-04-22T00:07:15.611Z,94.80
2019-04-22T00:09:53.445Z,94.70
2019-04-22T00:12:37.444Z,94.80
2019-04-22T00:15:03.794Z,94.70
2019-04-22T00:17:58.848Z,94.70
2019-04-22T00:20:14.498Z,95.00
2019-04-22T00:22:57.836Z,95.10
2019-04-22T00:25:39.221Z,94.90
2019-04-22T00:28:24.998Z,95.00
2019-04-22T00:30:56.038Z,95.10
2019-04-22T00:33:26.781Z,95.20
2019-04-22T00:36:01.407Z,95.30
2019-04-22T00:38:38.710Z,95.50
2019-04-22T00:41:22.929Z,95.50
2019-04-22T00:43:56.746Z,95.60
2019-04-22T00:46:27.606Z,95.70
2019-04-22T00:49:44.107Z,95.70
2019-04-22T00:51:36.469Z,95.90
2019-04-22T00:54:06.023Z,95.90
2019-04-22T00:56:40.843Z,95.90
2019-04-22T00:59:13.256Z,95.90
2019-04-22T01:01:52.947Z,95.90
2019-04-22T01:04:35.092Z,96.00
2019-04-22T01:07:07.003Z,95.90
2019-04-22T01:09:46.363Z,95.90
2019-04-22T01:12:24.197Z,96.10
2019-04-22T01:14:51.896Z,96.20
2019-04-22T01:17:28.099Z,96.40
2019-04-22T01:20:16.278Z,96.60
2019-04-22T01:22:32.381Z,96.40
2019-04-22T01:25:15.983Z,96.20
2019-04-22T01:27:44.596Z,96.30
2019-04-22T01:30:15.099Z,96.20
2019-04-22T01:32:44.915Z,96.10
2019-04-22T01:35:31.145Z,96.20
2019-04-22T01:38:13.388Z,96.00
2019-04-22T01:41:04.683Z,96.10
2019-04-22T01:43:51.839Z,96.40
2019-04-22T01:46:25.260Z,96.40
2019-04-22T01:49:01.431Z,96.20
2019-04-22T01:51:43.758Z,96.30
2019-04-22T01:54:16.068Z,96.20
2019-04-22T01:56:45.084Z,96.10
2019-04-22T01:59:10.966Z,96.10
2019-04-22T02:01:52.803Z,96.10
2019-04-22T02:04:26.928Z,96.40
2019-04-22T02:07:01.944Z,96.50
2019-04-22T02:14:48.468Z,96.40
2019-04-22T02:17:28.663Z,96.20
2019-04-22T02:19:57.592Z,96.10
2019-04-22T02:22:41.741Z,96.30
2019-04-22T02:25:12.976Z,96.00
2019-04-22T02:27:43.320Z,96.00
2019-04-22T02:30:22.462Z,96.20
2019-04-22T02:33:30.649Z,96.10
2019-04-22T02:35:58.300Z,96.10
2019-04-22T02:38:34.975Z,96.40
2019-04-22T02:41:21.089Z,96.60
2019-04-22T02:46:23.127Z,96.40
2019-04-22T02:54:21.627Z,96.40
2019-04-22T02:56:48.729Z,96.50
2019-04-22T03:01:51.422Z,96.30
2019-04-22T03:04:28.351Z,96.60
2019-04-22T03:06:53.295Z,96.80
2019-04-22T03:09:40.278Z,96.70
2019-04-22T03:15:03.351Z,96.90
2019-04-22T03:17:20.661Z,97.10
2019-04-22T03:20:04.230Z,97.00
2019-04-22T03:22:29.489Z,97.00
2019-04-22T03:27:40.229Z,97.00
2019-04-22T03:33:06.481Z,97.00
2019-04-22T03:40:52.896Z,96.90
2019-04-22T03:43:57.599Z,97.20
2019-04-22T03:46:21.460Z,97.30
2019-04-22T03:49:06.608Z,97.30
2019-04-22T03:51:43.394Z,97.20
2019-04-22T03:54:17.465Z,97.20
2019-04-22T03:57:17.761Z,97.20
2019-04-22T03:59:39.137Z,97.30
2019-04-22T04:04:36.025Z,97.50
2019-04-22T04:07:11.043Z,97.40
2019-04-22T04:12:03.715Z,97.40
2019-04-22T04:14:47.045Z,97.30
2019-04-22T04:17:26.236Z,97.30
2019-04-22T04:20:10.582Z,97.30
2019-04-22T04:30:13.852Z,96.90
2019-04-22T04:40:26.696Z,96.60
2019-04-22T04:43:00.599Z,96.70
2019-04-22T04:45:49.307Z,96.80
2019-04-22T04:48:20.767Z,96.60
2019-04-22T04:51:00.396Z,96.80
2019-04-22T04:56:03.161Z,96.40
2019-04-22T05:04:04.647Z,95.90
2019-04-22T05:11:42.916Z,95.00
2019-04-22T05:14:06.292Z,94.70
2019-04-22T05:16:46.381Z,94.80
2019-04-22T05:19:15.981Z,94.60
2019-04-22T05:21:54.545Z,94.40
2019-04-22T05:24:16.802Z,94.50
2019-04-22T05:32:03.062Z,93.50
2019-04-22T05:34:37.984Z,93.40
2019-04-22T05:37:14.789Z,93.20
2019-04-22T05:39:52.394Z,93.20
2019-04-22T05:42:34.496Z,92.80
2019-04-22T05:47:52.345Z,92.20
2019-04-22T05:50:24.671Z,92.10
2019-04-22T05:55:43.866Z,91.60
2019-04-22T05:58:10.813Z,91.10
2019-04-22T06:01:13.016Z,91.20
2019-04-22T06:03:21.089Z,91.00
2019-04-22T06:05:55.345Z,90.70
2019-04-22T06:08:39.950Z,90.40
2019-04-22T06:11:17.119Z,90.30
2019-04-22T06:13:48.240Z,90.20
2019-04-22T06:16:43.126Z,89.40
2019-04-22T06:19:13.501Z,89.80
2019-04-22T06:21:41.759Z,88.50
2019-04-22T06:24:18.535Z,88.20
2019-04-22T06:29:23.810Z,87.80
2019-04-22T06:37:12.852Z,87.30
2019-04-22T06:39:39.619Z,86.90
2019-04-22T06:42:28.750Z,87.40
2019-04-22T06:45:07.241Z,86.90
2019-04-22T06:48:02.376Z,86.10
2019-04-22T06:50:31.474Z,86.00
2019-04-22T06:52:59.944Z,85.90
2019-04-22T06:55:39.023Z,86.60
2019-04-22T06:58:04.803Z,85.80
2019-04-22T07:00:42.922Z,85.90
2019-04-22T07:03:34.812Z,85.50
2019-04-22T07:06:00.228Z,85.80
2019-04-22T07:11:04.509Z,84.80
2019-04-22T07:14:00.046Z,84.20
2019-04-22T07:16:20.330Z,84.70
2019-04-22T07:18:54.488Z,84.20
2019-04-22T07:21:30.583Z,83.90
2019-04-22T07:24:21.141Z,83.80
2019-04-22T07:26:49.445Z,83.70
2019-04-22T07:29:17.287Z,83.50
2019-04-22T07:31:55.762Z,83.50
2019-04-22T07:34:27.675Z,84.20
2019-04-22T07:37:17.134Z,82.80
2019-04-22T07:39:35.654Z,81.90
2019-04-22T07:42:22.741Z,82.40
2019-04-22T07:44:59.139Z,81.40
2019-04-22T07:47:44.401Z,81.60
2019-04-22T07:50:26.729Z,81.60
2019-04-22T07:52:51.849Z,81.60
2019-04-22T07:55:32.479Z,81.10
2019-04-22T07:58:11.850Z,80.80
2019-04-22T08:00:53.006Z,80.20
2019-04-22T08:03:29.306Z,80.90
2019-04-22T08:06:16.910Z,81.00
2019-04-22T08:08:37.602Z,79.70
2019-04-22T08:11:43.791Z,79.20
2019-04-22T08:13:54.743Z,79.20
2019-04-22T08:16:28.476Z,79.30
2019-04-22T08:19:09.077Z,77.90
2019-04-22T08:21:49.437Z,78.40
2019-04-22T08:24:22.634Z,78.60
2019-04-22T08:26:54.695Z,78.10
2019-04-22T08:29:43.796Z,77.90
2019-04-22T08:32:27.982Z,77.30
2019-04-22T08:34:50.129Z,77.00
2019-04-22T08:39:55.122Z,76.40
2019-04-22T08:45:18.674Z,76.50
2019-04-22T08:47:47.916Z,76.50
2019-04-22T08:50:37.820Z,76.60
2019-04-22T08:53:10.907Z,77.00
2019-04-22T08:55:51.989Z,76.60
2019-04-22T09:01:05.102Z,75.40
2019-04-22T09:03:27.990Z,76.90
2019-04-22T09:06:04.902Z,76.50
2019-04-22T09:08:41.841Z,76.30
2019-04-22T09:11:16.464Z,75.60
2019-04-22T09:13:50.522Z,75.70
2019-04-22T09:29:13.030Z,75.70
2019-04-22T09:31:56.948Z,74.40
2019-04-22T09:34:24.305Z,74.60
2019-04-22T09:37:07.992Z,75.20
2019-04-22T09:39:29.641Z,75.50
2019-04-22T09:42:10.542Z,74.50
2019-04-22T09:44:44.959Z,75.20
2019-04-22T09:47:25.197Z,75.70
2019-04-22T09:50:17.922Z,74.70
2019-04-22T09:52:40.644Z,75.20
2019-04-22T09:55:12.717Z,74.80
2019-04-22T09:57:48.252Z,74.20
2019-04-22T10:00:22.957Z,75.20
2019-04-22T10:02:55.907Z,73.80
2019-04-22T10:05:29.319Z,74.40
2019-04-22T10:07:59.987Z,73.40
2019-04-22T10:10:41.489Z,73.20
2019-04-22T10:13:12.957Z,73.90
2019-04-22T10:15:52.067Z,72.80
2019-04-22T10:18:21.548Z,72.70
2019-04-22T10:21:06.646Z,72.50
2019-04-22T10:23:31.320Z,72.70
2019-04-22T10:26:04.831Z,72.30
2019-04-22T10:28:44.687Z,72.70
2019-04-22T10:31:21.865Z,73.00
2019-04-22T10:33:42.207Z,74.00
2019-04-22T10:35:55.334Z,73.20
2019-04-22T10:38:32.492Z,72.70
2019-04-22T10:41:10.234Z,72.60
2019-04-22T10:43:47.591Z,72.40
2019-04-22T10:46:24.311Z,72.30
2019-04-22T10:49:00.492Z,72.70
2019-04-22T10:51:37.121Z,72.70
2019-04-22T10:54:07.397Z,75.00
2019-04-22T10:56:37.155Z,72.30
2019-04-22T10:59:14.283Z,72.10
2019-04-22T11:01:50.560Z,71.40
2019-04-22T11:04:21.529Z,72.30
2019-04-22T11:07:02.994Z,72.60
2019-04-22T11:09:29.152Z,71.70
2019-04-22T11:12:11.668Z,70.90
2019-04-22T11:14:43.372Z,69.60
2019-04-22T11:17:19.592Z,70.60
2019-04-22T11:19:57.504Z,67.60
2019-04-22T11:22:31.618Z,68.40
2019-04-22T11:25:05.631Z,67.80
2019-04-22T11:27:37.021Z,67.50
2019-04-22T11:30:19.035Z,67.40
2019-04-22T11:32:54.539Z,66.40
2019-04-22T11:35:32.045Z,68.10
2019-04-22T11:38:08.776Z,67.60
2019-04-22T11:40:43.596Z,65.60
2019-04-22T11:43:16.598Z,65.60
2019-04-22T11:45:47.102Z,66.70
2019-04-22T11:48:31.060Z,65.30
2019-04-22T11:51:14.094Z,64.70
2019-04-22T11:53:44.919Z,65.10
2019-04-22T11:56:21.170Z,65.30
2019-04-22T11:58:50.953Z,64.20
2019-04-22T12:01:27.051Z,64.50
2019-04-22T12:03:57.815Z,63.20
2019-04-22T12:06:35.842Z,62.50
2019-04-22T12:09:17.704Z,62.20
2019-04-22T12:11:54.101Z,61.40
2019-04-22T12:14:24.026Z,61.90
2019-04-22T12:17:03.477Z,59.40
2019-04-22T12:19:33.457Z,59.50
2019-04-22T12:22:17.364Z,59.50
2019-04-22T12:24:48.187Z,60.00
2019-04-22T12:27:26.789Z,61.00
2019-04-22T12:29:56.779Z,62.20
2019-04-22T12:32:27.434Z,61.70
2019-04-22T12:35:05.180Z,59.90
2019-04-22T12:37:49.581Z,57.80
2019-04-22T12:40:27.027Z,59.90
2019-04-22T12:42:53.505Z,60.50
2019-04-22T12:45:30.046Z,58.10
2019-04-22T12:48:12.979Z,58.00
2019-04-22T12:50:58.030Z,57.80
2019-04-22T12:53:28.021Z,58.20
2019-04-22T12:56:05.061Z,58.30
2019-04-22T12:58:41.422Z,58.00
2019-04-22T13:01:11.141Z,56.30
2019-04-22T13:03:46.895Z,56.30
2019-04-22T13:06:23.657Z,58.30
2019-04-22T13:09:00.264Z,58.30
2019-04-22T13:11:32.836Z,57.70
2019-04-22T13:14:01.133Z,57.70
2019-04-22T13:16:36.819Z,57.10
2019-04-22T13:19:11.213Z,55.80
2019-04-22T13:21:45.122Z,55.80
2019-04-22T13:24:15.979Z,56.70
2019-04-22T13:26:52.963Z,56.40
2019-04-22T13:29:29.153Z,56.90
2019-04-22T13:31:58.754Z,56.90
2019-04-22T13:34:47.580Z,54.50
2019-04-22T13:37:19.225Z,54.60
2019-04-22T13:39:49.256Z,54.50
2019-04-22T13:42:27.442Z,55.60
2019-04-22T13:44:58.094Z,54.10
2019-04-22T13:47:43.624Z,54.70
2019-04-22T13:55:48.137Z,53.30
2019-04-22T13:58:03.877Z,52.90
2019-04-22T14:00:31.053Z,55.40
2019-04-22T14:03:18.489Z,53.80
2019-04-22T14:06:02.671Z,53.90
2019-04-22T14:08:38.390Z,54.20
2019-04-22T14:11:23.839Z,54.20
2019-04-22T14:13:46.190Z,54.90
2019-04-22T14:16:22.830Z,55.80
2019-04-22T14:19:00.199Z,56.30
2019-04-22T14:21:36.881Z,56.50
2019-04-22T14:24:07.313Z,56.30
2019-04-22T14:26:55.629Z,57.40
2019-04-22T14:29:22.035Z,56.60
2019-04-22T14:32:08.644Z,55.00
2019-04-22T14:34:38.817Z,56.40
2019-04-22T14:37:16.401Z,55.40
2019-04-22T14:39:46.267Z,56.40
2019-04-22T14:42:35.799Z,55.70
2019-04-22T14:48:07.327Z,56.20
2019-04-22T14:50:35.489Z,56.50
2019-04-22T14:53:15.740Z,56.30
2019-04-22T14:55:40.350Z,55.70
2019-04-22T14:58:10.992Z,55.70
2019-04-22T15:00:49.085Z,55.50
2019-04-22T15:03:19.695Z,55.70
2019-04-22T15:05:55.960Z,55.70
2019-04-22T15:08:26.812Z,55.20
2019-04-22T15:11:05.823Z,55.90
2019-04-22T15:13:41.283Z,56.80
2019-04-22T15:16:25.678Z,56.40
2019-04-22T15:19:09.561Z,57.40
2019-04-22T15:21:46.960Z,57.60
2019-04-22T15:24:34.502Z,57.40
2019-04-22T15:27:10.701Z,57.20
2019-04-22T15:29:41.185Z,57.90
2019-04-22T15:32:23.663Z,58.10
2019-04-22T15:34:59.748Z,59.20
2019-04-22T15:37:30.850Z,58.90
2019-04-22T15:40:08.841Z,59.10
2019-04-22T15:42:42.856Z,59.30
2019-04-22T15:45:18.740Z,59.40
2019-04-22T15:47:48.297Z,59.20
2019-04-22T15:50:24.641Z,57.50
2019-04-22T15:53:04.194Z,58.60
2019-04-22T15:55:39.058Z,58.60
2019-04-22T15:58:10.008Z,58.60
2019-04-22T16:01:02.561Z,59.00
2019-04-22T16:03:32.369Z,58.70
2019-04-22T16:06:15.645Z,59.50
2019-04-22T16:08:45.821Z,60.20
2019-04-22T16:11:22.546Z,59.80
2019-04-22T16:13:52.512Z,60.00
2019-04-22T16:16:28.457Z,59.60
2019-04-22T16:19:04.852Z,60.40
2019-04-22T16:21:49.028Z,58.50
2019-04-22T16:24:24.324Z,58.00
2019-04-22T16:26:58.554Z,58.40
2019-04-22T16:29:34.597Z,58.10
2019-04-22T16:32:11.553Z,59.00
2019-04-22T16:34:42.342Z,58.50
2019-04-22T16:37:12.558Z,58.60
2019-04-22T16:39:50.469Z,57.80
2019-04-22T16:42:35.850Z,58.20
2019-04-22T16:44:57.733Z,59.40
2019-04-22T16:47:33.680Z,59.40
2019-04-22T16:50:03.784Z,59.40
2019-04-22T16:52:48.079Z,59.70
2019-04-22T16:55:32.758Z,60.30
2019-04-22T16:58:03.142Z,60.40
2019-04-22T17:00:34.287Z,60.90
2019-04-22T17:03:28.992Z,61.10
2019-04-22T17:06:19.393Z,61.10
2019-04-22T17:08:55.341Z,62.10
2019-04-22T17:11:31.858Z,62.00
2019-04-22T17:14:01.435Z,62.30
2019-04-22T17:16:38.709Z,62.70
2019-04-22T17:19:09.046Z,62.90
2019-04-22T17:21:45.728Z,63.50
2019-04-22T17:24:15.206Z,63.50
2019-04-22T17:26:52.600Z,64.10
2019-04-22T17:29:22.815Z,64.30
2019-04-22T17:32:04.276Z,64.60
2019-04-22T17:34:30.062Z,65.00
2019-04-22T17:37:19.196Z,65.40
2019-04-22T17:39:57.369Z,65.90
2019-04-22T17:42:41.953Z,65.80
2019-04-22T17:45:22.284Z,66.30
2019-04-22T17:48:12.773Z,66.70
2019-04-22T17:50:57.860Z,67.30
2019-04-22T17:53:31.503Z,67.80
2019-04-22T17:56:13.749Z,67.70
2019-04-22T17:58:47.678Z,67.50
2019-04-22T18:01:28.168Z,67.80
2019-04-22T18:03:49.731Z,68.20
2019-04-22T18:06:45.253Z,68.50
2019-04-22T18:09:14.673Z,68.70
2019-04-22T18:11:46.267Z,69.10
2019-04-22T18:16:52.123Z,69.50
2019-04-22T18:19:32.575Z,69.80
2019-04-22T18:22:00.860Z,70.20
2019-04-22T18:24:32.634Z,70.30
2019-04-22T18:27:30.444Z,70.40
2019-04-22T18:29:47.083Z,70.50
2019-04-22T18:32:30.253Z,70.70
2019-04-22T18:35:02.759Z,70.90
2019-04-22T18:37:50.628Z,71.30
2019-04-22T18:40:18.256Z,71.60
2019-04-22T18:42:56.706Z,72.00
2019-04-22T18:48:05.581Z,72.80
2019-04-22T18:51:04.846Z,73.10
2019-04-22T18:53:35.228Z,73.60
2019-04-22T18:56:19.192Z,73.90
2019-04-22T18:58:51.354Z,74.10
2019-04-22T19:01:17.753Z,74.40
2019-04-22T19:04:04.589Z,74.80
2019-04-22T19:06:55.117Z,75.10
2019-04-22T19:09:27.586Z,75.40
2019-04-22T19:12:18.032Z,75.50
2019-04-22T19:17:30.086Z,76.00
2019-04-22T19:19:57.875Z,76.20
2019-04-22T19:22:57.420Z,76.50
2019-04-22T19:25:17.297Z,76.50
2019-04-22T19:28:02.557Z,76.80
2019-04-22T19:30:41.556Z,77.00
2019-04-22T19:33:11.237Z,77.10
2019-04-22T19:35:43.525Z,77.40
2019-04-22T19:38:16.775Z,77.70
2019-04-22T19:43:46.565Z,78.10
2019-04-22T19:46:18.061Z,78.30
2019-04-22T19:48:57.835Z,78.50
2019-04-22T19:51:38.366Z,78.70
2019-04-22T19:54:07.720Z,78.70
2019-04-22T19:56:38.672Z,78.90
2019-04-22T19:59:22.453Z,79.20
2019-04-22T20:02:00.960Z,79.40
2019-04-22T20:04:52.778Z,79.70
2019-04-22T20:07:17.811Z,80.00
2019-04-22T20:09:52.206Z,80.00
2019-04-22T20:12:23.551Z,80.30
2019-04-22T20:14:57.597Z,80.50
2019-04-22T20:20:17.024Z,81.10
2019-04-22T20:22:49.455Z,81.40
2019-04-22T20:25:21.278Z,81.60
2019-04-22T20:28:05.934Z,81.80
2019-04-22T20:30:46.701Z,82.00
2019-04-22T20:33:26.243Z,82.20
2019-04-22T20:35:51.829Z,82.30
2019-04-22T20:38:35.442Z,82.50
2019-04-22T20:41:02.421Z,82.80
2019-04-22T20:43:46.766Z,83.00
2019-04-22T20:46:24.095Z,83.20
2019-04-22T20:49:00.566Z,83.30
2019-04-22T20:51:52.873Z,83.40
2019-04-22T20:54:18.801Z,83.60
2019-04-22T20:56:58.909Z,83.80
2019-04-22T20:59:47.488Z,83.80
2019-04-22T21:02:14.048Z,84.00
2019-04-22T21:04:41.372Z,84.00
2019-04-22T21:07:23.837Z,84.20
2019-04-22T21:10:04.294Z,84.30
2019-04-22T21:12:27.779Z,84.50
2019-04-22T21:15:19.431Z,84.70
2019-04-22T21:17:54.429Z,84.80
2019-04-22T21:20:48.161Z,84.90
2019-04-22T21:23:05.794Z,84.90
2019-04-22T21:25:34.050Z,85.00
2019-04-22T21:28:21.384Z,85.00
2019-04-22T21:30:48.171Z,85.00
2019-04-22T21:33:19.449Z,85.10
2019-04-22T21:36:20.641Z,85.20
2019-04-22T21:38:39.854Z,85.30
2019-04-22T21:41:14.510Z,85.40
2019-04-22T21:43:42.141Z,85.50
2019-04-22T21:46:20.834Z,85.50
2019-04-22T21:49:02.300Z,85.70
2019-04-22T21:54:09.561Z,85.80
2019-04-22T21:57:13.999Z,85.90
2019-04-22T21:59:41.806Z,85.80
2019-04-22T22:02:28.113Z,85.80
2019-04-22T22:04:55.180Z,85.90
2019-04-22T22:07:26.834Z,85.90
2019-04-22T22:10:16.340Z,86.00
2019-04-22T22:13:09.721Z,85.90
2019-04-22T22:15:42.162Z,86.00
2019-04-22T22:18:20.029Z,85.90
2019-04-22T22:21:13.031Z,86.00
2019-04-22T22:23:49.436Z,86.10
2019-04-22T22:26:06.774Z,86.00
2019-04-22T22:28:52.243Z,86.00
2019-04-22T22:31:26.616Z,86.00
2019-04-22T22:34:08.182Z,86.00
2019-04-22T22:36:29.636Z,86.00
2019-04-22T22:39:00.084Z,86.00
2019-04-22T22:41:23.888Z,85.90
2019-04-22T22:44:08.950Z,85.90
2019-04-22T22:46:43.175Z,85.80
2019-04-22T22:49:32.965Z,85.80
2019-04-22T22:52:31.731Z,85.80
2019-04-22T22:54:54.132Z,85.80
2019-04-22T22:57:28.919Z,85.70
2019-04-22T23:00:01.468Z,85.60
2019-04-22T23:03:00.751Z,85.70
2019-04-22T23:05:21.903Z,85.50
2019-04-22T23:08:16.614Z,85.20
2019-04-22T23:10:33.930Z,85.20
2019-04-22T23:13:14.710Z,85.10
2019-04-22T23:15:37.057Z,85.20
2019-04-22T23:17:50.001Z,85.10
2019-04-22T23:20:33.743Z,85.10
2019-04-22T23:23:33.332Z,85.00
2019-04-22T23:26:06.977Z,85.00
2019-04-22T23:28:45.980Z,84.80
2019-04-22T23:31:23.984Z,84.90
2019-04-22T23:34:04.624Z,84.90
2019-04-22T23:36:36.936Z,84.90
2019-04-22T23:39:27.455Z,84.90
2019-04-22T23:42:00.382Z,84.80
2019-04-22T23:44:29.141Z,84.70
2019-04-22T23:47:11.035Z,84.50
2019-04-22T23:49:47.017Z,84.40
2019-04-22T23:52:30.659Z,84.20
2019-04-22T23:55:11.519Z,84.10
2019-04-22T23:57:58.455Z,84.10
